Time;durP1;ratioP1;P1;durP2;ratioP2;P2;SDS_P1;SDS_P2;PMS_P1;PMS_P2;Temp;Humidity;BMP_temperature;BMP_pressure;BME280_temperature;BME280_humidity;BME280_pressure;Samples;Min_cycle;Max_cycle;Signal;HPM_P1;HPM_P2
2022/03/14 00:00:01;;;;;;;9.13;6.13;;;;;;;;;;4976474;28;20439;-55
2022/03/14 00:02:27;;;;;;;8.63;6.50;;;;;;;;;;4982239;28;20435;-55
2022/03/14 00:04:54;;;;;;;6.93;6.20;;;;;;;;;;4967431;28;20448;-55
2022/03/14 00:07:20;;;;;;;9.43;7.57;;;;;;;;;;4983052;28;20786;-55
2022/03/14 00:09:46;;;;;;;9.20;6.70;;;;;;;;;;4983564;28;20552;-55
2022/03/14 00:12:17;;;;;;;7.40;6.60;;;;;;;;;;4967316;28;20966;-55
2022/03/14 00:14:43;;;;;;;8.87;6.53;;;;;;;;;;4984964;28;20831;-55
2022/03/14 00:17:10;;;;;;;19.80;6.90;;;;;;;;;;4967789;28;20426;-55
2022/03/14 00:19:36;;;;;;;9.70;6.30;;;;;;;;;;4984915;28;20434;-55
2022/03/14 00:22:02;;;;;;;7.97;6.17;;;;;;;;;;4982020;28;20427;-55
2022/03/14 00:24:28;;;;;;;7.07;6.37;;;;;;;;;;4981568;28;20431;-54
2022/03/14 00:26:54;;;;;;;7.03;6.40;;;;;;;;;;4984692;28;20427;-54
2022/03/14 00:29:21;;;;;;;8.20;6.73;;;;;;;;;;4967016;28;21071;-55
2022/03/14 00:31:47;;;;;;;7.00;6.43;;;;;;;;;;4984678;28;20889;-55
2022/03/14 00:34:15;;;;;;;7.23;6.53;;;;;;;;;;4984954;28;20422;-55
2022/03/14 00:36:42;;;;;;;11.37;6.70;;;;;;;;;;4966611;28;20430;-55
2022/03/14 00:39:09;;;;;;;8.10;6.97;;;;;;;;;;4981510;28;20446;-55
2022/03/14 00:41:35;;;;;;;7.00;6.40;;;;;;;;;;4981790;28;20486;-55
2022/03/14 00:44:02;;;;;;;8.17;7.17;;;;;;;;;;4984879;28;20441;-55
2022/03/14 00:46:28;;;;;;;7.43;6.70;;;;;;;;;;4982452;28;20442;-54
2022/03/14 00:48:55;;;;;;;7.40;6.10;;;;;;;;;;4981333;28;20696;-55
2022/03/14 00:51:21;;;;;;;8.57;6.60;;;;;;;;;;4981383;28;20422;-54
2022/03/14 00:53:47;;;;;;;13.53;6.73;;;;;;;;;;4983033;28;20462;-53
2022/03/14 00:56:13;;;;;;;8.90;7.13;;;;;;;;;;4984702;28;20505;-54
2022/03/14 00:58:40;;;;;;;7.67;6.97;;;;;;;;;;4984611;28;20909;-55
2022/03/14 01:01:06;;;;;;;9.13;6.20;;;;;;;;;;4984639;28;20434;-56
2022/03/14 01:03:32;;;;;;;6.77;5.90;;;;;;;;;;4984485;28;20442;-55
2022/03/14 01:05:59;;;;;;;6.63;6.10;;;;;;;;;;4981047;28;20779;-54
2022/03/14 01:08:25;;;;;;;9.07;6.80;;;;;;;;;;4970290;28;20462;-54
2022/03/14 01:10:51;;;;;;;7.27;6.57;;;;;;;;;;4981853;28;20781;-55
2022/03/14 01:13:17;;;;;;;7.33;6.63;;;;;;;;;;4963737;28;20821;-55
2022/03/14 01:15:43;;;;;;;10.53;6.30;;;;;;;;;;4964601;28;20927;-55
2022/03/14 01:18:09;;;;;;;7.50;6.67;;;;;;;;;;4984157;28;20480;-55
2022/03/14 01:20:35;;;;;;;6.83;6.17;;;;;;;;;;4983916;28;20435;-55
2022/03/14 01:23:01;;;;;;;8.40;7.40;;;;;;;;;;4984257;28;20433;-56
2022/03/14 01:25:27;;;;;;;8.03;6.50;;;;;;;;;;4983870;28;20829;-55
2022/03/14 01:27:54;;;;;;;9.57;7.00;;;;;;;;;;4981546;28;20419;-55
2022/03/14 01:30:21;;;;;;;11.80;7.50;;;;;;;;;;4980964;28;20418;-55
2022/03/14 01:32:47;;;;;;;11.50;7.13;;;;;;;;;;4965074;28;20434;-55
2022/03/14 01:35:13;;;;;;;7.17;6.43;;;;;;;;;;4986344;28;20494;-55
2022/03/14 01:37:39;;;;;;;6.33;5.80;;;;;;;;;;4981478;28;20419;-55
2022/03/14 01:40:08;;;;;;;9.07;7.60;;;;;;;;;;4983785;28;20426;-55
2022/03/14 01:42:34;;;;;;;9.83;7.20;;;;;;;;;;4983901;28;20418;-55
2022/03/14 01:45:01;;;;;;;16.50;7.30;;;;;;;;;;4980461;28;20417;-55
2022/03/14 01:47:28;;;;;;;11.23;8.53;;;;;;;;;;4980369;28;20435;-54
2022/03/14 01:49:54;;;;;;;9.53;7.90;;;;;;;;;;4985109;28;20476;-55
2022/03/14 01:52:20;;;;;;;11.07;9.07;;;;;;;;;;4983498;28;20816;-55
2022/03/14 01:54:48;;;;;;;10.03;8.33;;;;;;;;;;4981551;28;20509;-56
2022/03/14 01:57:14;;;;;;;11.27;7.47;;;;;;;;;;4985662;28;20425;-55
2022/03/14 01:59:41;;;;;;;12.10;7.70;;;;;;;;;;4982578;28;20423;-55
2022/03/14 02:02:06;;;;;;;12.90;7.90;;;;;;;;;;4980226;28;20466;-55
2022/03/14 02:04:33;;;;;;;9.33;7.70;;;;;;;;;;4980066;28;20430;-55
2022/03/14 02:06:59;;;;;;;10.20;6.77;;;;;;;;;;4987387;28;20537;-55
2022/03/14 02:09:25;;;;;;;11.10;8.27;;;;;;;;;;4979956;28;20466;-54
2022/03/14 02:11:52;;;;;;;15.27;8.17;;;;;;;;;;4982230;28;20458;-55
2022/03/14 02:14:19;;;;;;;7.77;6.97;;;;;;;;;;4983356;28;20513;-55
2022/03/14 02:16:45;;;;;;;12.30;8.10;;;;;;;;;;4981764;28;20434;-55
2022/03/14 02:19:11;;;;;;;6.43;5.83;;;;;;;;;;4980027;28;20427;-55
2022/03/14 02:21:38;;;;;;;11.23;6.80;;;;;;;;;;4980275;28;20441;-55
2022/03/14 02:24:04;;;;;;;8.00;7.30;;;;;;;;;;4968347;28;20561;-55
2022/03/14 02:26:30;;;;;;;8.83;7.27;;;;;;;;;;4979531;28;20426;-55
2022/03/14 02:28:56;;;;;;;9.63;8.03;;;;;;;;;;4980141;28;20465;-55
2022/03/14 02:31:24;;;;;;;12.07;8.90;;;;;;;;;;4979846;28;20506;-55
2022/03/14 02:33:50;;;;;;;8.03;6.87;;;;;;;;;;4983063;28;20419;-55
2022/03/14 02:36:16;;;;;;;10.77;8.80;;;;;;;;;;4989381;28;20501;-55
2022/03/14 02:38:43;;;;;;;8.70;7.90;;;;;;;;;;4989003;28;20525;-55
2022/03/14 02:41:10;;;;;;;9.10;7.90;;;;;;;;;;4971886;28;20508;-55
2022/03/14 02:43:36;;;;;;;10.03;8.77;;;;;;;;;;4989210;28;20433;-54
2022/03/14 02:46:03;;;;;;;14.10;8.93;;;;;;;;;;4985988;28;20925;-55
2022/03/14 02:48:30;;;;;;;10.40;7.77;;;;;;;;;;4986131;28;20450;-55
2022/03/14 02:50:56;;;;;;;13.17;8.53;;;;;;;;;;4989083;28;20505;-55
2022/03/14 02:53:22;;;;;;;10.30;8.83;;;;;;;;;;4971772;28;20631;-55
2022/03/14 02:55:49;;;;;;;11.43;9.43;;;;;;;;;;4980849;28;20972;-55
2022/03/14 02:58:15;;;;;;;9.50;8.40;;;;;;;;;;4992063;28;20517;-55
2022/03/14 03:00:41;;;;;;;8.63;7.57;;;;;;;;;;4986982;28;20557;-55
2022/03/14 03:03:07;;;;;;;10.70;8.17;;;;;;;;;;4989413;28;20414;-55
2022/03/14 03:05:34;;;;;;;12.03;7.50;;;;;;;;;;4989330;28;20909;-55
2022/03/14 03:08:00;;;;;;;11.47;8.80;;;;;;;;;;4985049;28;20912;-55
2022/03/14 03:10:27;;;;;;;12.23;7.80;;;;;;;;;;4971485;28;20509;-55
2022/03/14 03:12:53;;;;;;;8.57;7.77;;;;;;;;;;4989332;28;20504;-55
2022/03/14 03:15:19;;;;;;;10.30;7.83;;;;;;;;;;4989337;28;20904;-55
2022/03/14 03:17:46;;;;;;;8.50;7.60;;;;;;;;;;4987460;28;20433;-55
2022/03/14 03:20:12;;;;;;;29.43;9.03;;;;;;;;;;4985963;28;20427;-55
2022/03/14 03:22:39;;;;;;;11.57;7.40;;;;;;;;;;4968912;28;20468;-55
2022/03/14 03:25:06;;;;;;;12.30;8.90;;;;;;;;;;4989220;28;20472;-55
2022/03/14 03:27:32;;;;;;;10.17;8.30;;;;;;;;;;4982898;28;20538;-55
2022/03/14 03:29:58;;;;;;;8.40;7.23;;;;;;;;;;4984488;28;20467;-55
2022/03/14 03:32:25;;;;;;;9.47;7.30;;;;;;;;;;4968174;28;20995;-55
2022/03/14 03:34:51;;;;;;;12.20;7.80;;;;;;;;;;4988049;28;20423;-55
2022/03/14 03:37:17;;;;;;;9.30;6.73;;;;;;;;;;4987036;28;20497;-55
2022/03/14 03:39:43;;;;;;;8.13;7.40;;;;;;;;;;4986899;28;20502;-55
2022/03/14 03:42:09;;;;;;;12.63;6.83;;;;;;;;;;4988914;28;20831;-54
2022/03/14 03:44:35;;;;;;;14.20;8.77;;;;;;;;;;4988726;28;20468;-55
2022/03/14 03:47:01;;;;;;;11.97;7.87;;;;;;;;;;4984971;28;20913;-55
2022/03/14 03:49:28;;;;;;;8.30;7.47;;;;;;;;;;4985875;28;20260;-55
2022/03/14 03:51:54;;;;;;;9.33;8.00;;;;;;;;;;4982802;28;20431;-56
2022/03/14 03:54:21;;;;;;;15.03;8.27;;;;;;;;;;4982486;28;20429;-55
2022/03/14 03:56:47;;;;;;;10.87;8.10;;;;;;;;;;4990793;28;20171;-55
2022/03/14 03:59:13;;;;;;;9.00;8.03;;;;;;;;;;4985818;28;20437;-55
2022/03/14 04:01:39;;;;;;;11.87;7.70;;;;;;;;;;4979078;28;20562;-55
2022/03/14 04:04:05;;;;;;;12.03;7.80;;;;;;;;;;4982348;28;20471;-55
2022/03/14 04:06:32;;;;;;;14.27;8.17;;;;;;;;;;4982173;28;20426;-55
2022/03/14 04:09:00;;;;;;;14.17;8.50;;;;;;;;;;4985873;28;20477;-55
2022/03/14 04:11:26;;;;;;;11.17;8.73;;;;;;;;;;4982324;28;20423;-55
2022/03/14 04:13:53;;;;;;;13.03;8.67;;;;;;;;;;4984694;28;20434;-55
2022/03/14 04:16:22;;;;;;;17.27;9.07;;;;;;;;;;4984848;28;20422;-54
2022/03/14 04:18:48;;;;;;;11.87;9.03;;;;;;;;;;4985429;28;20917;-55
2022/03/14 04:21:15;;;;;;;11.67;9.07;;;;;;;;;;4985360;28;20484;-55
2022/03/14 04:23:41;;;;;;;14.23;10.47;;;;;;;;;;4983946;28;20422;-55
2022/03/14 04:26:08;;;;;;;13.90;10.63;;;;;;;;;;4981928;28;20423;-55
2022/03/14 04:28:36;;;;;;;16.43;10.27;;;;;;;;;;4981829;28;20484;-55
2022/03/14 04:31:03;;;;;;;15.10;11.43;;;;;;;;;;4985243;28;20418;-55
2022/03/14 04:33:30;;;;;;;16.80;12.13;;;;;;;;;;4985162;28;20431;-55
2022/03/14 04:35:57;;;;;;;13.87;10.70;;;;;;;;;;4975154;28;20429;-55
2022/03/14 04:38:23;;;;;;;17.27;11.47;;;;;;;;;;4984728;28;20422;-55
2022/03/14 04:40:49;;;;;;;16.10;11.27;;;;;;;;;;4986447;28;20520;-55
2022/03/14 04:43:15;;;;;;;15.50;11.60;;;;;;;;;;4987964;28;20770;-55
2022/03/14 04:45:41;;;;;;;16.90;12.30;;;;;;;;;;4983917;28;20434;-55
2022/03/14 04:48:07;;;;;;;17.87;11.40;;;;;;;;;;4968508;28;20426;-55
2022/03/14 04:50:37;;;;;;;19.93;13.10;;;;;;;;;;4982875;28;20187;-55
2022/03/14 04:53:03;;;;;;;19.97;12.37;;;;;;;;;;4987940;28;20462;-57
2022/03/14 04:55:30;;;;;;;20.37;12.10;;;;;;;;;;4988178;28;20466;-55
2022/03/14 04:57:56;;;;;;;19.63;12.30;;;;;;;;;;4985689;28;20433;-57
2022/03/14 05:00:22;;;;;;;23.10;13.80;;;;;;;;;;4971806;28;20442;-55
2022/03/14 05:02:49;;;;;;;23.50;11.73;;;;;;;;;;4984514;28;20423;-56
2022/03/14 05:05:15;;;;;;;17.77;13.53;;;;;;;;;;4985096;28;20955;-56
2022/03/14 05:07:41;;;;;;;18.90;12.93;;;;;;;;;;4985543;28;20442;-56
2022/03/14 05:10:09;;;;;;;19.97;14.10;;;;;;;;;;4966506;28;20466;-55
2022/03/14 05:12:35;;;;;;;16.70;12.00;;;;;;;;;;4987784;28;20958;-56
2022/03/14 05:15:04;;;;;;;33.97;14.27;;;;;;;;;;4988005;28;20426;-56
2022/03/14 05:17:30;;;;;;;22.87;15.00;;;;;;;;;;4987395;28;20425;-56
2022/03/14 05:19:57;;;;;;;18.80;13.23;;;;;;;;;;4970553;28;20428;-56
2022/03/14 05:22:23;;;;;;;22.70;13.90;;;;;;;;;;4964573;28;20440;-55
2022/03/14 05:24:49;;;;;;;21.77;13.90;;;;;;;;;;4986087;28;20516;-54
2022/03/14 05:27:15;;;;;;;23.27;14.73;;;;;;;;;;4985376;28;21018;-54
2022/03/14 05:29:41;;;;;;;24.50;17.10;;;;;;;;;;4995286;28;20469;-55
2022/03/14 05:32:08;;;;;;;23.73;14.80;;;;;;;;;;4988886;28;20438;-55
2022/03/14 05:34:35;;;;;;;29.37;17.20;;;;;;;;;;4983001;28;20446;-55
2022/03/14 05:37:01;;;;;;;25.40;17.20;;;;;;;;;;4986152;28;20414;-57
2022/03/14 05:39:27;;;;;;;33.37;16.70;;;;;;;;;;4987409;28;20423;-56
2022/03/14 05:41:54;;;;;;;26.40;17.80;;;;;;;;;;4984498;28;21233;-56
2022/03/14 05:44:21;;;;;;;26.93;18.20;;;;;;;;;;4965216;28;20588;-60
2022/03/14 05:46:47;;;;;;;25.23;18.00;;;;;;;;;;4983778;28;20959;-56
2022/03/14 05:49:13;;;;;;;29.70;18.37;;;;;;;;;;4988682;28;20462;-55
2022/03/14 05:51:39;;;;;;;23.70;16.90;;;;;;;;;;4988776;28;20781;-56
2022/03/14 05:54:05;;;;;;;30.50;18.20;;;;;;;;;;4982417;28;20465;-56
2022/03/14 05:56:31;;;;;;;28.47;19.43;;;;;;;;;;4984061;28;20478;-56
2022/03/14 05:58:58;;;;;;;28.60;17.47;;;;;;;;;;4985303;28;20925;-55
2022/03/14 06:01:24;;;;;;;28.57;19.73;;;;;;;;;;4984546;28;20442;-55
2022/03/14 06:03:52;;;;;;;29.43;18.03;;;;;;;;;;4985263;28;20987;-54
2022/03/14 06:06:18;;;;;;;30.47;19.70;;;;;;;;;;4988204;28;20457;-54
2022/03/14 06:08:44;;;;;;;29.00;18.17;;;;;;;;;;4987982;28;20462;-56
2022/03/14 06:11:12;;;;;;;28.87;19.20;;;;;;;;;;4982305;28;20790;-55
2022/03/14 06:13:39;;;;;;;29.13;17.50;;;;;;;;;;4965475;28;20427;-55
2022/03/14 06:16:05;;;;;;;27.90;18.40;;;;;;;;;;4983096;28;20429;-55
2022/03/14 06:18:31;;;;;;;26.53;17.30;;;;;;;;;;4985078;28;20854;-55
2022/03/14 06:20:57;;;;;;;25.63;16.97;;;;;;;;;;4965682;28;20783;-55
2022/03/14 06:23:23;;;;;;;24.03;16.50;;;;;;;;;;4963930;28;20435;-55
2022/03/14 06:25:50;;;;;;;27.33;17.83;;;;;;;;;;4986290;28;20947;-55
2022/03/14 06:28:16;;;;;;;27.30;18.47;;;;;;;;;;4982220;28;20530;-55
2022/03/14 06:30:42;;;;;;;26.53;17.07;;;;;;;;;;4984709;28;20446;-55
2022/03/14 06:33:09;;;;;;;25.97;18.00;;;;;;;;;;4982454;28;20434;-55
2022/03/14 06:35:35;;;;;;;29.90;16.67;;;;;;;;;;4982548;28;20952;-55
2022/03/14 06:38:03;;;;;;;29.40;17.83;;;;;;;;;;4983522;28;20438;-56
2022/03/14 06:40:29;;;;;;;26.70;15.83;;;;;;;;;;4983136;28;20474;-56
2022/03/14 06:42:55;;;;;;;30.33;18.40;;;;;;;;;;4985438;28;20430;-56
2022/03/14 06:45:24;;;;;;;28.60;18.60;;;;;;;;;;4978732;28;20462;-56
2022/03/14 06:47:51;;;;;;;32.43;18.73;;;;;;;;;;4985224;28;20944;-56
2022/03/14 06:50:17;;;;;;;30.93;19.37;;;;;;;;;;4984892;28;20470;-56
2022/03/14 06:52:43;;;;;;;29.70;18.70;;;;;;;;;;4980804;28;20513;-55
2022/03/14 06:55:10;;;;;;;32.83;22.50;;;;;;;;;;4983058;28;20477;-55
2022/03/14 06:57:37;;;;;;;32.17;19.17;;;;;;;;;;4989234;28;20458;-56
2022/03/14 07:00:04;;;;;;;30.80;20.53;;;;;;;;;;4979674;28;20423;-55
2022/03/14 07:02:30;;;;;;;33.50;20.83;;;;;;;;;;4979655;28;20434;-55
2022/03/14 07:04:56;;;;;;;31.27;19.13;;;;;;;;;;4982442;28;20430;-55
2022/03/14 07:07:22;;;;;;;33.70;21.00;;;;;;;;;;4962801;28;20522;-55
2022/03/14 07:09:48;;;;;;;33.43;20.13;;;;;;;;;;4981404;28;20506;-55
2022/03/14 07:12:14;;;;;;;32.37;18.83;;;;;;;;;;4982924;28;20844;-55
2022/03/14 07:14:40;;;;;;;28.63;18.00;;;;;;;;;;4964472;28;20943;-56
2022/03/14 07:17:07;;;;;;;26.53;19.00;;;;;;;;;;4979602;28;20910;-55
2022/03/14 07:19:34;;;;;;;27.30;17.40;;;;;;;;;;4979318;28;20427;-55
2022/03/14 07:22:00;;;;;;;27.67;17.63;;;;;;;;;;4982662;28;20431;-55
2022/03/14 07:24:26;;;;;;;31.30;18.23;;;;;;;;;;4983027;28;20925;-55
2022/03/14 07:26:52;;;;;;;35.20;17.80;;;;;;;;;;4985492;28;20431;-56
2022/03/14 07:29:18;;;;;;;28.10;17.40;;;;;;;;;;4986306;28;20462;-55
2022/03/14 07:31:44;;;;;;;24.10;17.10;;;;;;;;;;4984920;28;20422;-55
2022/03/14 07:34:11;;;;;;;26.17;16.43;;;;;;;;;;4982868;28;20418;-55
2022/03/14 07:36:37;;;;;;;25.13;16.30;;;;;;;;;;4983195;28;20429;-55
2022/03/14 07:39:04;;;;;;;23.33;14.40;;;;;;;;;;4988898;28;20559;-55
2022/03/14 07:41:30;;;;;;;16.90;11.50;;;;;;;;;;4982803;28;20422;-55
2022/03/14 07:44:00;;;;;;;15.80;11.70;;;;;;;;;;4968320;28;20436;-55
2022/03/14 07:46:26;;;;;;;20.87;13.07;;;;;;;;;;4986222;28;20426;-55
2022/03/14 07:48:52;;;;;;;20.07;12.50;;;;;;;;;;4983167;28;20474;-55
2022/03/14 07:51:18;;;;;;;15.40;10.30;;;;;;;;;;4982479;28;20457;-55
2022/03/14 07:53:44;;;;;;;11.63;9.87;;;;;;;;;;4983723;28;20466;-55
2022/03/14 07:56:11;;;;;;;15.43;10.90;;;;;;;;;;4985912;28;20414;-56
2022/03/14 07:58:37;;;;;;;14.60;11.07;;;;;;;;;;4985885;28;20983;-56
2022/03/14 08:01:03;;;;;;;16.43;10.10;;;;;;;;;;4985772;28;20430;-55
2022/03/14 08:03:31;;;;;;;11.37;10.20;;;;;;;;;;4985852;28;20437;-56
2022/03/14 08:05:58;;;;;;;14.20;9.47;;;;;;;;;;4985736;28;21029;-56
2022/03/14 08:08:25;;;;;;;13.67;9.63;;;;;;;;;;4985435;28;20453;-56
2022/03/14 08:10:51;;;;;;;10.70;8.20;;;;;;;;;;4965889;28;20512;-55
2022/03/14 08:13:19;;;;;;;13.33;9.97;;;;;;;;;;4982180;28;20510;-55
2022/03/14 08:15:45;;;;;;;14.27;8.43;;;;;;;;;;4983467;28;20509;-56
2022/03/14 08:18:11;;;;;;;7.70;6.67;;;;;;;;;;4985680;28;20595;-56
2022/03/14 08:20:37;;;;;;;12.40;7.83;;;;;;;;;;4984943;28;20680;-55
2022/03/14 08:23:03;;;;;;;6.27;5.70;;;;;;;;;;4981926;28;20473;-56
2022/03/14 08:25:30;;;;;;;8.60;5.67;;;;;;;;;;4981980;28;20514;-56
2022/03/14 08:27:56;;;;;;;6.80;5.43;;;;;;;;;;4985049;28;20422;-56
2022/03/14 08:30:22;;;;;;;9.50;6.77;;;;;;;;;;4985011;28;20527;-56
2022/03/14 08:32:49;;;;;;;6.57;5.80;;;;;;;;;;4982582;28;20513;-56
2022/03/14 08:35:17;;;;;;;6.17;5.57;;;;;;;;;;4981935;28;20832;-56
2022/03/14 08:37:45;;;;;;;4.60;4.20;;;;;;;;;;4982938;28;20455;-56
2022/03/14 08:40:13;;;;;;;4.10;3.80;;;;;;;;;;4984947;28;20429;-55
2022/03/14 08:42:40;;;;;;;2.90;2.70;;;;;;;;;;4984400;28;20452;-56
2022/03/14 08:45:07;;;;;;;5.60;4.27;;;;;;;;;;4981588;28;20431;-56
2022/03/14 08:47:34;;;;;;;6.57;3.10;;;;;;;;;;4989813;28;20426;-56
2022/03/14 08:50:02;;;;;;;3.87;3.40;;;;;;;;;;4981522;28;20504;-57
2022/03/14 08:52:29;;;;;;;4.27;3.57;;;;;;;;;;4981352;28;20693;-56
2022/03/14 08:54:55;;;;;;;3.70;3.43;;;;;;;;;;4984103;28;20453;-56
2022/03/14 08:57:21;;;;;;;3.67;3.20;;;;;;;;;;4991289;28;20436;-56
2022/03/14 08:59:47;;;;;;;3.27;2.87;;;;;;;;;;4965310;28;20430;-56
2022/03/14 09:02:13;;;;;;;3.00;2.90;;;;;;;;;;4980906;28;20456;-56
2022/03/14 09:04:40;;;;;;;3.40;3.10;;;;;;;;;;4982136;28;20208;-56
2022/03/14 09:07:06;;;;;;;4.30;3.63;;;;;;;;;;4983821;28;20429;-56
2022/03/14 09:09:34;;;;;;;3.43;3.20;;;;;;;;;;4981248;28;20218;-56
2022/03/14 09:12:00;;;;;;;2.53;2.43;;;;;;;;;;4984263;28;20940;-56
2022/03/14 09:14:26;;;;;;;2.73;2.63;;;;;;;;;;4984576;28;20462;-56
2022/03/14 09:16:52;;;;;;;3.10;3.00;;;;;;;;;;4981944;28;20422;-56
2022/03/14 09:19:18;;;;;;;4.30;3.43;;;;;;;;;;4980877;28;20423;-56
2022/03/14 09:21:46;;;;;;;2.63;2.40;;;;;;;;;;4982242;28;20430;-55
2022/03/14 09:24:12;;;;;;;3.20;3.00;;;;;;;;;;4984335;28;20824;-56
2022/03/14 09:26:38;;;;;;;3.40;3.10;;;;;;;;;;4983491;28;20445;-56
2022/03/14 09:29:06;;;;;;;3.53;3.33;;;;;;;;;;4980697;28;20518;-56
2022/03/14 09:31:32;;;;;;;3.40;3.10;;;;;;;;;;4980657;28;20865;-55
2022/03/14 09:33:58;;;;;;;2.90;2.70;;;;;;;;;;4966523;28;20518;-56
2022/03/14 09:36:24;;;;;;;2.83;2.73;;;;;;;;;;4966362;28;20442;-56
2022/03/14 09:38:50;;;;;;;3.20;3.00;;;;;;;;;;4981787;28;20441;-56
2022/03/14 09:41:18;;;;;;;3.47;2.30;;;;;;;;;;4980550;28;20435;-56
2022/03/14 09:43:45;;;;;;;3.20;3.00;;;;;;;;;;4981016;28;20431;-56
2022/03/14 09:46:12;;;;;;;2.97;2.67;;;;;;;;;;4983821;28;20537;-56
2022/03/14 09:48:40;;;;;;;3.47;3.27;;;;;;;;;;4983345;28;20951;-56
2022/03/14 09:51:07;;;;;;;2.70;2.60;;;;;;;;;;4980280;28;20424;-55
2022/03/14 09:53:34;;;;;;;3.63;3.30;;;;;;;;;;4980279;28;21009;-56
2022/03/14 09:56:00;;;;;;;3.20;3.10;;;;;;;;;;4982283;28;20419;-56
2022/03/14 09:58:27;;;;;;;4.00;3.80;;;;;;;;;;4984818;28;20418;-56
2022/03/14 10:00:54;;;;;;;5.07;4.00;;;;;;;;;;4982717;28;20423;-56
2022/03/14 10:03:21;;;;;;;3.77;3.57;;;;;;;;;;4983711;28;20494;-56
2022/03/14 10:05:47;;;;;;;9.30;4.97;;;;;;;;;;4981636;28;20427;-56
2022/03/14 10:08:13;;;;;;;5.60;4.57;;;;;;;;;;4981096;28;20410;-56
2022/03/14 10:10:40;;;;;;;5.27;4.87;;;;;;;;;;4982733;28;20414;-56
2022/03/14 10:13:06;;;;;;;5.97;5.40;;;;;;;;;;4980085;28;20913;-56
2022/03/14 10:15:36;;;;;;;6.50;5.90;;;;;;;;;;4980018;28;20470;-55
2022/03/14 10:18:10;;;;;;;6.30;5.80;;;;;;;;;;4983339;28;20416;-57
2022/03/14 10:20:36;;;;;;;6.63;6.00;;;;;;;;;;4983039;28;20430;-56
2022/03/14 10:23:03;;;;;;;7.10;6.40;;;;;;;;;;4979832;28;20434;-55
2022/03/14 10:25:30;;;;;;;9.30;8.40;;;;;;;;;;4980022;28;20419;-56
2022/03/14 10:27:57;;;;;;;14.17;8.97;;;;;;;;;;4982941;28;20824;-56
2022/03/14 10:30:27;;;;;;;11.10;9.37;;;;;;;;;;4983261;28;20493;-57
2022/03/14 10:33:08;;;;;;;10.03;8.37;;;;;;;;;;4980668;28;20418;-56
2022/03/14 10:35:36;;;;;;;14.63;9.83;;;;;;;;;;4979756;28;20762;-56
2022/03/14 10:38:04;;;;;;;12.43;10.47;;;;;;;;;;4983220;28;20423;-56
2022/03/14 10:40:34;;;;;;;11.83;10.57;;;;;;;;;;4983297;28;20792;-56
2022/03/14 10:43:00;;;;;;;13.33;11.70;;;;;;;;;;4983363;28;20521;-56
2022/03/14 10:45:27;;;;;;;17.93;12.20;;;;;;;;;;4983114;28;20411;-56
2022/03/14 10:47:54;;;;;;;12.47;10.70;;;;;;;;;;4980384;28;20410;-56
2022/03/14 10:50:33;;;;;;;13.10;11.50;;;;;;;;;;4979619;28;20466;-57
2022/03/14 10:53:10;;;;;;;12.87;9.90;;;;;;;;;;4982967;28;20454;-56
2022/03/14 10:55:39;;;;;;;13.77;10.77;;;;;;;;;;4984092;28;20429;-56
2022/03/14 10:58:09;;;;;;;17.47;14.10;;;;;;;;;;4990262;28;20866;-56
2022/03/14 11:00:49;;;;;;;16.63;12.07;;;;;;;;;;4982559;28;20967;-56
2022/03/14 11:03:23;;;;;;;19.47;13.40;;;;;;;;;;4985450;28;20517;-56
2022/03/14 11:05:49;;;;;;;20.67;13.70;;;;;;;;;;4984804;28;20414;-56
2022/03/14 11:08:28;;;;;;;19.20;13.43;;;;;;;;;;4984740;28;20476;-55
2022/03/14 11:10:55;;;;;;;23.77;14.33;;;;;;;;;;4983869;28;20482;-55
2022/03/14 11:13:21;;;;;;;19.90;14.73;;;;;;;;;;4983379;28;20778;-56
2022/03/14 11:15:47;;;;;;;17.20;14.10;;;;;;;;;;4985127;28;20419;-56
2022/03/14 11:18:13;;;;;;;19.53;15.53;;;;;;;;;;4986572;28;20433;-56
2022/03/14 11:20:40;;;;;;;26.37;18.23;;;;;;;;;;4985798;28;20972;-56
2022/03/14 11:23:06;;;;;;;22.13;16.07;;;;;;;;;;4983035;28;20450;-55
2022/03/14 11:25:33;;;;;;;26.00;17.27;;;;;;;;;;4991114;28;20422;-56
2022/03/14 11:28:00;;;;;;;25.93;16.57;;;;;;;;;;4991199;28;20831;-56
2022/03/14 11:30:27;;;;;;;22.90;17.13;;;;;;;;;;4983095;28;20525;-56
2022/03/14 11:32:52;;;;;;;21.83;15.57;;;;;;;;;;4985636;28;20427;-56
2022/03/14 11:35:19;;;;;;;27.63;17.90;;;;;;;;;;4986211;28;20499;-56
2022/03/14 11:37:46;;;;;;;21.93;16.23;;;;;;;;;;4981866;28;20423;-56
2022/03/14 11:40:12;;;;;;;44.27;15.00;;;;;;;;;;4986327;28;20417;-56
2022/03/14 11:42:39;;;;;;;22.13;15.93;;;;;;;;;;4985604;28;20478;-56
2022/03/14 11:45:07;;;;;;;20.93;15.80;;;;;;;;;;4982886;28;20449;-56
2022/03/14 11:47:33;;;;;;;22.97;16.07;;;;;;;;;;4982811;28;20423;-56
2022/03/14 11:50:00;;;;;;;29.60;19.10;;;;;;;;;;4986295;28;20469;-56
2022/03/14 11:52:35;;;;;;;29.60;16.50;;;;;;;;;;4985877;28;20458;-56
2022/03/14 11:55:02;;;;;;;21.47;17.03;;;;;;;;;;4986486;28;20414;-56
2022/03/14 11:57:41;;;;;;;24.83;18.20;;;;;;;;;;4992594;28;20426;-56
2022/03/14 12:00:22;;;;;;;23.37;15.97;;;;;;;;;;4987047;28;20430;-56
2022/03/14 12:02:54;;;;;;;24.43;16.73;;;;;;;;;;4983920;28;20509;-56
2022/03/14 12:05:23;;;;;;;26.87;18.00;;;;;;;;;;4982459;28;20426;-56
2022/03/14 12:07:51;;;;;;;31.47;18.07;;;;;;;;;;4983278;28;20419;-56
2022/03/14 12:10:29;;;;;;;23.53;17.10;;;;;;;;;;4985742;28;20626;-57
2022/03/14 12:12:58;;;;;;;26.80;17.10;;;;;;;;;;4982827;28;20419;-56
2022/03/14 12:15:39;;;;;;;25.80;17.80;;;;;;;;;;4982254;28;20445;-56
2022/03/14 12:18:26;;;;;;;30.63;18.23;;;;;;;;;;4985462;28;20418;-56
2022/03/14 12:20:53;;;;;;;26.80;18.50;;;;;;;;;;4983023;28;20509;-56
2022/03/14 12:23:22;;;;;;;26.33;18.47;;;;;;;;;;4982277;28;20474;-56
2022/03/14 12:25:48;;;;;;;32.50;18.63;;;;;;;;;;4983950;28;20458;-56
2022/03/14 12:28:25;;;;;;;26.17;17.50;;;;;;;;;;4985333;28;20418;-56
2022/03/14 12:30:51;;;;;;;29.90;20.10;;;;;;;;;;4983120;28;20427;-56
2022/03/14 12:33:30;;;;;;;28.33;18.17;;;;;;;;;;4981953;28;20420;-56
2022/03/14 12:35:57;;;;;;;26.43;16.47;;;;;;;;;;4967244;28;20422;-56
2022/03/14 12:38:23;;;;;;;28.20;17.70;;;;;;;;;;4985044;28;20418;-56
2022/03/14 12:40:51;;;;;;;26.70;17.20;;;;;;;;;;4983164;28;20453;-56
2022/03/14 12:43:31;;;;;;;30.17;17.47;;;;;;;;;;4981610;28;20441;-56
2022/03/14 12:46:01;;;;;;;28.33;17.30;;;;;;;;;;4984883;28;20419;-56
2022/03/14 12:48:31;;;;;;;32.37;17.33;;;;;;;;;;4984809;28;20426;-56
2022/03/14 12:50:57;;;;;;;27.93;16.63;;;;;;;;;;4981698;28;20430;-57
2022/03/14 12:53:31;;;;;;;24.53;17.03;;;;;;;;;;4981440;28;20458;-56
2022/03/14 12:55:59;;;;;;;23.33;15.20;;;;;;;;;;4984656;28;20512;-55
2022/03/14 12:58:27;;;;;;;22.20;13.57;;;;;;;;;;4985927;28;20505;-57
2022/03/14 13:00:55;;;;;;;25.30;13.60;;;;;;;;;;4984018;28;20957;-57
2022/03/14 13:03:22;;;;;;;19.97;13.23;;;;;;;;;;4967133;28;20445;-56
2022/03/14 13:05:50;;;;;;;23.70;13.20;;;;;;;;;;4982630;28;20797;-56
2022/03/14 13:08:16;;;;;;;19.83;13.07;;;;;;;;;;4982459;28;20433;-56
2022/03/14 13:10:43;;;;;;;14.77;11.07;;;;;;;;;;4983581;28;20454;-56
2022/03/14 13:13:09;;;;;;;18.37;11.70;;;;;;;;;;4980871;28;20482;-56
2022/03/14 13:15:37;;;;;;;26.37;12.00;;;;;;;;;;4980082;28;20423;-57
2022/03/14 13:18:03;;;;;;;17.40;10.53;;;;;;;;;;4984125;28;20469;-56
2022/03/14 13:20:30;;;;;;;11.67;9.67;;;;;;;;;;4984336;28;20424;-56
2022/03/14 13:22:57;;;;;;;11.50;8.57;;;;;;;;;;4981365;28;20414;-56
2022/03/14 13:25:36;;;;;;;11.33;9.23;;;;;;;;;;4980925;28;20477;-56
2022/03/14 13:28:02;;;;;;;12.30;9.00;;;;;;;;;;4984333;28;20429;-56
2022/03/14 13:30:42;;;;;;;11.10;7.80;;;;;;;;;;4983842;28;20498;-56
2022/03/14 13:33:18;;;;;;;11.13;7.20;;;;;;;;;;4985396;28;20414;-56
2022/03/14 13:35:44;;;;;;;12.10;7.30;;;;;;;;;;4982668;28;20418;-56
2022/03/14 13:38:11;;;;;;;13.47;8.40;;;;;;;;;;4981294;28;20896;-56
2022/03/14 13:40:44;;;;;;;11.03;8.20;;;;;;;;;;4983514;28;21007;-55
2022/03/14 13:43:11;;;;;;;13.77;7.57;;;;;;;;;;4980703;28;20474;-57
2022/03/14 13:45:37;;;;;;;11.00;7.80;;;;;;;;;;4980941;28;20458;-55
2022/03/14 13:48:04;;;;;;;7.37;6.67;;;;;;;;;;4983961;28;20476;-56
2022/03/14 13:50:30;;;;;;;8.27;7.47;;;;;;;;;;4983812;28;20969;-57
2022/03/14 13:52:56;;;;;;;12.97;8.40;;;;;;;;;;4980611;28;20849;-56
2022/03/14 13:55:22;;;;;;;9.70;8.27;;;;;;;;;;4980300;28;20431;-56
2022/03/14 13:57:48;;;;;;;13.67;8.17;;;;;;;;;;4970850;28;20914;-56
2022/03/14 14:00:15;;;;;;;12.30;7.97;;;;;;;;;;4980287;28;20427;-57
2022/03/14 14:02:41;;;;;;;8.27;7.27;;;;;;;;;;4981140;28;20435;-57
2022/03/14 14:05:08;;;;;;;14.13;8.43;;;;;;;;;;4983424;28;20901;-56
2022/03/14 14:07:35;;;;;;;9.90;7.57;;;;;;;;;;4979264;28;20423;-56
2022/03/14 14:10:09;;;;;;;11.73;7.57;;;;;;;;;;4983255;28;20824;-56
2022/03/14 14:12:35;;;;;;;15.60;8.33;;;;;;;;;;4983350;28;20527;-56
2022/03/14 14:15:02;;;;;;;12.90;9.27;;;;;;;;;;4980249;28;20796;-56
2022/03/14 14:17:32;;;;;;;21.90;8.47;;;;;;;;;;4962707;28;20427;-57
2022/03/14 14:20:02;;;;;;;9.03;7.00;;;;;;;;;;4982892;28;20445;-56
2022/03/14 14:22:38;;;;;;;12.70;7.97;;;;;;;;;;4983419;28;20433;-56
2022/03/14 14:25:27;;;;;;;16.40;8.13;;;;;;;;;;4983906;28;20497;-56
2022/03/14 14:28:02;;;;;;;8.30;7.50;;;;;;;;;;4980577;28;20422;-57